createdAt,value
2023-03-21T00:02:04.239Z,27.20
2023-03-21T00:10:39.565Z,26.90
2023-03-21T00:19:06.439Z,26.50
2023-03-21T00:27:49.986Z,28.90
2023-03-21T00:36:13.162Z,25.10
2023-03-21T00:44:37.077Z,24.10
2023-03-21T00:53:00.336Z,24.70
2023-03-21T01:01:23.290Z,25.60
2023-03-21T01:09:46.248Z,20.70
2023-03-21T01:18:09.432Z,19.80
2023-03-21T01:26:33.007Z,22.90
2023-03-21T01:34:56.253Z,21.10
2023-03-21T01:43:27.119Z,19.20
2023-03-21T01:52:01.091Z,17.60
2023-03-21T02:00:29.702Z,19.90
2023-03-21T02:09:04.631Z,18.80
2023-03-21T02:17:46.402Z,18.40
2023-03-21T02:26:19.762Z,18.40
2023-03-21T02:35:01.078Z,18.90
2023-03-21T02:43:56.679Z,18.60
2023-03-21T02:52:38.085Z,18.70
2023-03-21T03:01:04.151Z,17.80
2023-03-21T03:09:59.914Z,16.10
2023-03-21T03:18:31.801Z,17.20
2023-03-21T03:27:10.651Z,17.70
2023-03-21T03:35:34.391Z,16.50
2023-03-21T03:44:00.545Z,15.90
2023-03-21T03:52:34.195Z,17.70
2023-03-21T04:01:07.613Z,17.10
2023-03-21T04:09:43.105Z,16.40
2023-03-21T04:18:07.285Z,15.20
2023-03-21T04:26:33.794Z,18.00
2023-03-21T04:35:16.563Z,16.10
2023-03-21T04:43:40.100Z,17.40
2023-03-21T04:52:03.312Z,17.00
2023-03-21T05:00:27.314Z,17.30
2023-03-21T05:08:50.254Z,15.90
2023-03-21T05:17:23.206Z,15.50
2023-03-21T05:25:46.818Z,17.30
2023-03-21T05:34:19.159Z,15.50
2023-03-21T05:42:42.625Z,18.80
2023-03-21T05:51:11.188Z,20.10
2023-03-21T05:59:34.750Z,16.60
2023-03-21T06:07:57.976Z,18.80
2023-03-21T06:16:21.704Z,18.80
2023-03-21T06:24:45.546Z,17.90
2023-03-21T06:33:09.090Z,19.10
2023-03-21T06:41:33.208Z,16.60
2023-03-21T06:49:59.228Z,15.70
2023-03-21T06:58:23.213Z,14.00
2023-03-21T07:06:46.398Z,16.70
2023-03-21T07:15:10.052Z,16.00
2023-03-21T07:23:34.448Z,15.50
2023-03-21T07:31:57.660Z,15.90
2023-03-21T07:40:20.672Z,14.70
2023-03-21T07:48:44.356Z,15.80
2023-03-21T07:57:07.374Z,15.20
2023-03-21T08:05:35.582Z,13.20
2023-03-21T08:13:59.378Z,13.50
2023-03-21T08:22:22.230Z,14.70
2023-03-21T08:30:45.360Z,16.30
2023-03-21T08:39:08.233Z,13.30
2023-03-21T08:47:31.625Z,15.70
2023-03-21T08:55:54.531Z,10.80
2023-03-21T09:04:19.168Z,12.80
2023-03-21T09:12:42.525Z,12.40
2023-03-21T09:21:14.417Z,12.20
2023-03-21T09:29:38.619Z,11.90
2023-03-21T09:38:02.482Z,11.30
2023-03-21T09:46:45.361Z,11.40
2023-03-21T09:55:31.324Z,10.60
2023-03-21T10:03:57.319Z,10.70
2023-03-21T10:12:22.816Z,12.60
2023-03-21T10:20:46.021Z,9.60
2023-03-21T10:29:12.195Z,7.90
2023-03-21T10:37:36.354Z,6.40
2023-03-21T10:45:59.479Z,6.80
2023-03-21T10:54:28.287Z,12.50
2023-03-21T11:02:53.322Z,4.80
2023-03-21T11:11:24.807Z,10.60
2023-03-21T11:19:54.555Z,8.30
2023-03-21T11:28:34.042Z,4.10
2023-03-21T11:37:02.807Z,5.90
2023-03-21T11:45:30.889Z,4.30
2023-03-21T11:54:12.604Z,12.00
2023-03-21T12:03:41.445Z,6.10
2023-03-21T12:12:38.524Z,7.20
2023-03-21T12:21:10.588Z,4.40
2023-03-21T12:29:42.429Z,5.10
2023-03-21T12:38:43.848Z,4.80
2023-03-21T12:47:24.754Z,4.20
2023-03-21T12:55:47.756Z,8.40
2023-03-21T13:04:48.724Z,8.10
2023-03-21T13:13:42.120Z,10.60
2023-03-21T13:22:21.732Z,2.20
2023-03-21T13:30:44.968Z,4.40
2023-03-21T13:39:19.224Z,15.00
2023-03-21T13:47:52.720Z,34.80
2023-03-21T13:56:15.949Z,9.70
2023-03-21T14:04:53.710Z,8.40
2023-03-21T14:13:26.178Z,10.70
2023-03-21T14:21:53.516Z,6.10
2023-03-21T14:30:24.177Z,10.80
2023-03-21T14:39:01.203Z,8.30
2023-03-21T14:47:27.472Z,21.80
2023-03-21T14:56:00.692Z,5.90
2023-03-21T15:04:23.668Z,5.00
2023-03-21T15:12:55.788Z,7.60
2023-03-21T15:21:30.395Z,4.90
2023-03-21T15:29:57.026Z,43.70
2023-03-21T15:38:45.109Z,10.90
2023-03-21T15:47:13.839Z,9.40
2023-03-21T15:55:49.971Z,8.40
2023-03-21T16:04:13.921Z,28.00
2023-03-21T16:12:36.821Z,12.90
2023-03-21T16:20:59.842Z,29.10
2023-03-21T16:29:22.949Z,10.00
2023-03-21T16:37:48.291Z,16.80
2023-03-21T16:46:20.056Z,17.60
2023-03-21T16:54:43.570Z,10.40
2023-03-21T17:03:15.858Z,10.40
2023-03-21T17:11:41.741Z,59.00
2023-03-21T17:20:20.171Z,53.10
2023-03-21T17:28:43.122Z,65.30
2023-03-21T17:37:06.150Z,29.40
2023-03-21T17:45:29.867Z,47.00
2023-03-21T17:53:53.243Z,12.70
2023-03-21T18:02:18.379Z,9.60
2023-03-21T18:10:42.404Z,12.30
2023-03-21T18:19:05.845Z,10.70
2023-03-21T18:27:32.942Z,10.10
2023-03-21T18:36:00.135Z,10.30
2023-03-21T18:44:25.811Z,7.70
2023-03-21T18:52:49.279Z,8.10
2023-03-21T19:01:12.526Z,13.90
2023-03-21T19:09:58.106Z,24.10
2023-03-21T19:18:41.594Z,19.20
2023-03-21T19:32:19.860Z,27.10
2023-03-21T19:40:44.013Z,17.70
2023-03-21T19:49:07.225Z,13.70
2023-03-21T19:57:30.748Z,18.00
2023-03-21T20:06:02.601Z,19.70
2023-03-21T20:14:25.756Z,29.40
2023-03-21T20:23:07.937Z,23.30
2023-03-21T20:31:32.005Z,20.40
2023-03-21T20:39:55.050Z,18.90
2023-03-21T20:48:17.995Z,14.30
2023-03-21T20:56:41.399Z,32.00
2023-03-21T21:05:27.784Z,15.70
2023-03-21T21:13:54.950Z,15.80
2023-03-21T21:22:17.993Z,39.00
2023-03-21T21:30:41.611Z,49.60
2023-03-21T21:39:07.322Z,60.20
2023-03-21T21:47:30.398Z,74.50
2023-03-21T21:55:54.087Z,55.90
2023-03-21T22:04:18.218Z,52.70
2023-03-21T22:12:44.398Z,39.20
2023-03-21T22:21:08.116Z,39.70
2023-03-21T22:29:31.197Z,42.60
2023-03-21T22:37:54.471Z,33.40
2023-03-21T22:46:17.376Z,33.30
2023-03-21T22:54:40.805Z,26.60
2023-03-21T23:03:03.794Z,29.20
2023-03-21T23:11:26.882Z,38.90
2023-03-21T23:19:49.873Z,33.00
2023-03-21T23:28:12.741Z,27.50
2023-03-21T23:36:35.861Z,31.30
2023-03-21T23:44:58.771Z,30.20
2023-03-21T23:53:22.354Z,43.00
